sensor_id;sensor_type;location;lat;lon;timestamp;noise_LAeq;noise_LA_min;noise_LA_max;noise_LA01;noise_LA95
81666;Laerm;71083;51.796;10.952;2023-11-18T00:01:45;60.53;31.55;72.32;;
81666;Laerm;71083;51.796;10.952;2023-11-18T00:04:11;52.10;28.76;68.46;;
81666;Laerm;71083;51.796;10.952;2023-11-18T00:06:43;56.35;28.02;73.92;;
81666;Laerm;71083;51.796;10.952;2023-11-18T00:09:10;64.21;38.87;78.43;;
81666;Laerm;71083;51.796;10.952;2023-11-18T00:11:35;64.13;28.66;78.75;;
81666;Laerm;71083;51.796;10.952;2023-11-18T00:14:00;53.44;29.19;70.46;;
81666;Laerm;71083;51.796;10.952;2023-11-18T00:16:26;49.68;28.15;64.17;;
81666;Laerm;71083;51.796;10.952;2023-11-18T00:18:51;55.40;28.17;71.77;;
81666;Laerm;71083;51.796;10.952;2023-11-18T00:21:18;57.31;28.20;71.68;;
81666;Laerm;71083;51.796;10.952;2023-11-18T00:23:43;29.94;28.37;38.11;;
81666;Laerm;71083;51.796;10.952;2023-11-18T00:26:10;62.41;29.13;75.06;;
81666;Laerm;71083;51.796;10.952;2023-11-18T00:28:35;29.83;28.42;33.48;;
81666;Laerm;71083;51.796;10.952;2023-11-18T00:31:01;54.50;29.31;69.65;;
81666;Laerm;71083;51.796;10.952;2023-11-18T00:33:26;31.26;28.32;40.30;;
81666;Laerm;71083;51.796;10.952;2023-11-18T00:35:52;55.04;28.37;69.27;;
81666;Laerm;71083;51.796;10.952;2023-11-18T00:38:17;30.55;28.58;41.49;;
81666;Laerm;71083;51.796;10.952;2023-11-18T00:40:43;56.71;28.54;75.60;;
81666;Laerm;71083;51.796;10.952;2023-11-18T00:43:08;31.68;28.12;42.97;;
81666;Laerm;71083;51.796;10.952;2023-11-18T00:45:34;57.57;28.58;74.40;;
81666;Laerm;71083;51.796;10.952;2023-11-18T00:47:59;57.77;29.24;72.96;;
81666;Laerm;71083;51.796;10.952;2023-11-18T00:50:24;58.51;30.37;73.21;;
81666;Laerm;71083;51.796;10.952;2023-11-18T00:52:50;61.17;28.20;75.11;;
81666;Laerm;71083;51.796;10.952;2023-11-18T00:55:15;48.64;28.18;66.61;;
81666;Laerm;71083;51.796;10.952;2023-11-18T00:57:46;55.59;28.05;72.50;;
81666;Laerm;71083;51.796;10.952;2023-11-18T01:00:14;60.45;28.19;74.31;;
81666;Laerm;71083;51.796;10.952;2023-11-18T01:02:41;51.79;28.35;66.93;;
81666;Laerm;71083;51.796;10.952;2023-11-18T01:05:07;44.83;28.12;59.36;;
81666;Laerm;71083;51.796;10.952;2023-11-18T01:07:36;58.11;28.04;72.77;;
81666;Laerm;71083;51.796;10.952;2023-11-18T01:10:01;57.58;27.96;76.55;;
81666;Laerm;71083;51.796;10.952;2023-11-18T01:12:27;54.96;28.01;71.43;;
81666;Laerm;71083;51.796;10.952;2023-11-18T01:14:52;45.03;28.15;58.54;;
81666;Laerm;71083;51.796;10.952;2023-11-18T01:17:17;54.60;29.73;70.53;;
81666;Laerm;71083;51.796;10.952;2023-11-18T01:19:43;28.73;28.07;30.92;;
81666;Laerm;71083;51.796;10.952;2023-11-18T01:22:09;30.36;28.19;36.59;;
81666;Laerm;71083;51.796;10.952;2023-11-18T01:24:34;51.87;28.43;68.43;;
81666;Laerm;71083;51.796;10.952;2023-11-18T01:27:00;58.75;28.53;73.09;;
81666;Laerm;71083;51.796;10.952;2023-11-18T01:29:25;38.41;28.45;56.64;;
81666;Laerm;71083;51.796;10.952;2023-11-18T01:31:51;55.61;28.22;73.65;;
81666;Laerm;71083;51.796;10.952;2023-11-18T01:34:17;53.87;28.37;70.90;;
81666;Laerm;71083;51.796;10.952;2023-11-18T01:36:46;60.67;28.11;76.72;;
81666;Laerm;71083;51.796;10.952;2023-11-18T01:39:11;56.18;28.38;71.05;;
81666;Laerm;71083;51.796;10.952;2023-11-18T01:41:38;35.59;28.56;46.35;;
81666;Laerm;71083;51.796;10.952;2023-11-18T01:44:03;53.57;28.52;69.93;;
81666;Laerm;71083;51.796;10.952;2023-11-18T01:46:29;57.71;28.41;72.30;;
81666;Laerm;71083;51.796;10.952;2023-11-18T01:48:55;33.24;27.96;50.62;;
81666;Laerm;71083;51.796;10.952;2023-11-18T01:51:20;28.44;27.77;30.48;;
81666;Laerm;71083;51.796;10.952;2023-11-18T01:53:48;29.38;27.64;49.35;;
81666;Laerm;71083;51.796;10.952;2023-11-18T01:56:15;55.90;28.17;74.93;;
81666;Laerm;71083;51.796;10.952;2023-11-18T01:58:40;58.11;27.98;75.35;;
81666;Laerm;71083;51.796;10.952;2023-11-18T02:01:06;36.43;27.92;47.05;;
81666;Laerm;71083;51.796;10.952;2023-11-18T02:03:33;28.96;27.92;32.90;;
81666;Laerm;71083;51.796;10.952;2023-11-18T02:05:59;34.18;27.93;53.84;;
81666;Laerm;71083;51.796;10.952;2023-11-18T02:08:24;60.06;28.19;78.21;;
81666;Laerm;71083;51.796;10.952;2023-11-18T02:10:57;28.89;27.92;32.82;;
81666;Laerm;71083;51.796;10.952;2023-11-18T02:13:29;45.00;28.57;61.04;;
81666;Laerm;71083;51.796;10.952;2023-11-18T02:15:56;30.40;28.00;40.37;;
81666;Laerm;71083;51.796;10.952;2023-11-18T02:18:26;55.95;28.06;71.70;;
81666;Laerm;71083;51.796;10.952;2023-11-18T02:20:56;38.69;28.33;52.77;;
81666;Laerm;71083;51.796;10.952;2023-11-18T02:23:25;29.37;28.11;33.10;;
81666;Laerm;71083;51.796;10.952;2023-11-18T02:25:53;29.97;28.46;33.16;;
81666;Laerm;71083;51.796;10.952;2023-11-18T02:28:20;28.94;27.98;32.74;;
81666;Laerm;71083;51.796;10.952;2023-11-18T02:30:46;29.47;28.13;32.81;;
81666;Laerm;71083;51.796;10.952;2023-11-18T02:33:15;41.06;28.49;54.40;;
81666;Laerm;71083;51.796;10.952;2023-11-18T02:35:48;28.52;27.74;30.88;;
81666;Laerm;71083;51.796;10.952;2023-11-18T02:38:18;28.90;27.93;30.37;;
81666;Laerm;71083;51.796;10.952;2023-11-18T02:40:44;46.38;28.09;60.72;;
81666;Laerm;71083;51.796;10.952;2023-11-18T02:43:10;52.06;28.71;67.74;;
81666;Laerm;71083;51.796;10.952;2023-11-18T02:45:36;33.24;28.79;45.95;;
81666;Laerm;71083;51.796;10.952;2023-11-18T02:48:02;55.85;28.09;71.01;;
81666;Laerm;71083;51.796;10.952;2023-11-18T02:50:27;35.76;27.90;48.67;;
81666;Laerm;71083;51.796;10.952;2023-11-18T02:52:54;59.57;28.18;73.81;;
81666;Laerm;71083;51.796;10.952;2023-11-18T02:55:19;37.95;27.70;56.09;;
81666;Laerm;71083;51.796;10.952;2023-11-18T02:57:47;37.72;27.94;50.53;;
81666;Laerm;71083;51.796;10.952;2023-11-18T03:00:12;56.19;27.81;75.52;;
81666;Laerm;71083;51.796;10.952;2023-11-18T03:02:43;59.18;27.99;73.89;;
81666;Laerm;71083;51.796;10.952;2023-11-18T03:05:09;37.37;28.18;49.17;;
81666;Laerm;71083;51.796;10.952;2023-11-18T03:07:40;61.80;28.03;76.07;;
81666;Laerm;71083;51.796;10.952;2023-11-18T03:10:06;55.63;28.03;73.54;;
81666;Laerm;71083;51.796;10.952;2023-11-18T03:12:36;28.61;27.98;30.56;;
81666;Laerm;71083;51.796;10.952;2023-11-18T03:15:01;42.69;28.04;59.31;;
81666;Laerm;71083;51.796;10.952;2023-11-18T03:17:27;63.44;28.04;78.15;;
81666;Laerm;71083;51.796;10.952;2023-11-18T03:19:53;55.27;28.08;71.04;;
81666;Laerm;71083;51.796;10.952;2023-11-18T03:22:18;51.16;28.14;68.01;;
81666;Laerm;71083;51.796;10.952;2023-11-18T03:24:44;55.35;27.77;71.32;;
81666;Laerm;71083;51.796;10.952;2023-11-18T03:27:09;54.63;27.99;70.66;;
81666;Laerm;71083;51.796;10.952;2023-11-18T03:29:35;62.07;27.89;75.97;;
81666;Laerm;71083;51.796;10.952;2023-11-18T03:32:01;60.59;28.53;76.03;;
81666;Laerm;71083;51.796;10.952;2023-11-18T03:34:26;55.25;28.46;69.66;;
81666;Laerm;71083;51.796;10.952;2023-11-18T03:36:52;58.62;28.24;77.39;;
81666;Laerm;71083;51.796;10.952;2023-11-18T03:39:17;62.41;28.04;82.16;;
81666;Laerm;71083;51.796;10.952;2023-11-18T03:41:43;53.16;28.25;69.45;;
81666;Laerm;71083;51.796;10.952;2023-11-18T03:44:10;52.56;28.16;69.99;;
81666;Laerm;71083;51.796;10.952;2023-11-18T03:46:35;56.95;28.07;71.36;;
81666;Laerm;71083;51.796;10.952;2023-11-18T03:49:00;58.01;28.04;74.61;;
81666;Laerm;71083;51.796;10.952;2023-11-18T03:51:26;56.56;28.22;74.73;;
81666;Laerm;71083;51.796;10.952;2023-11-18T03:53:52;54.14;28.41;70.42;;
81666;Laerm;71083;51.796;10.952;2023-11-18T03:56:17;58.24;28.27;75.55;;
81666;Laerm;71083;51.796;10.952;2023-11-18T03:58:45;63.40;28.48;81.74;;
81666;Laerm;71083;51.796;10.952;2023-11-18T04:01:21;59.90;28.77;73.89;;
81666;Laerm;71083;51.796;10.952;2023-11-18T04:03:47;59.04;28.55;76.53;;
81666;Laerm;71083;51.796;10.952;2023-11-18T04:06:13;57.93;29.39;73.10;;
81666;Laerm;71083;51.796;10.952;2023-11-18T04:08:42;29.25;28.41;31.43;;
81666;Laerm;71083;51.796;10.952;2023-11-18T04:11:07;55.05;28.49;71.60;;
81666;Laerm;71083;51.796;10.952;2023-11-18T04:13:32;58.83;32.51;72.49;;
81666;Laerm;71083;51.796;10.952;2023-11-18T04:15:58;61.63;32.46;72.79;;
81666;Laerm;71083;51.796;10.952;2023-11-18T04:18:23;58.59;29.31;72.45;;
81666;Laerm;71083;51.796;10.952;2023-11-18T04:20:49;62.41;35.39;75.32;;
81666;Laerm;71083;51.796;10.952;2023-11-18T04:23:14;58.80;30.03;74.16;;
81666;Laerm;71083;51.796;10.952;2023-11-18T04:25:39;57.55;30.23;73.55;;
81666;Laerm;71083;51.796;10.952;2023-11-18T04:28:05;62.01;32.95;75.15;;
81666;Laerm;71083;51.796;10.952;2023-11-18T04:30:30;60.20;31.80;74.05;;
81666;Laerm;71083;51.796;10.952;2023-11-18T04:32:55;64.24;37.40;74.88;;
81666;Laerm;71083;51.796;10.952;2023-11-18T04:35:21;61.36;36.33;72.72;;
81666;Laerm;71083;51.796;10.952;2023-11-18T04:37:47;60.38;33.76;73.72;;
81666;Laerm;71083;51.796;10.952;2023-11-18T04:40:13;64.53;40.19;75.49;;
81666;Laerm;71083;51.796;10.952;2023-11-18T04:42:39;56.65;29.83;70.74;;
81666;Laerm;71083;51.796;10.952;2023-11-18T04:45:04;60.66;31.07;72.22;;
81666;Laerm;71083;51.796;10.952;2023-11-18T04:47:30;66.88;36.80;78.79;;
81666;Laerm;71083;51.796;10.952;2023-11-18T04:49:55;57.46;31.13;70.95;;
81666;Laerm;71083;51.796;10.952;2023-11-18T04:52:20;58.97;29.96;73.95;;
81666;Laerm;71083;51.796;10.952;2023-11-18T04:54:46;62.86;32.45;78.31;;
81666;Laerm;71083;51.796;10.952;2023-11-18T04:57:12;59.26;30.97;71.82;;
81666;Laerm;71083;51.796;10.952;2023-11-18T04:59:37;58.46;31.62;71.62;;
81666;Laerm;71083;51.796;10.952;2023-11-18T05:02:03;60.56;30.72;74.98;;
81666;Laerm;71083;51.796;10.952;2023-11-18T05:04:28;47.67;29.93;61.37;;
81666;Laerm;71083;51.796;10.952;2023-11-18T05:06:53;58.14;29.43;72.26;;
81666;Laerm;71083;51.796;10.952;2023-11-18T05:09:19;61.26;36.90;73.57;;
81666;Laerm;71083;51.796;10.952;2023-11-18T05:11:44;54.58;31.45;71.85;;
81666;Laerm;71083;51.796;10.952;2023-11-18T05:14:10;59.39;30.64;72.36;;
81666;Laerm;71083;51.796;10.952;2023-11-18T05:16:36;59.17;33.32;73.70;;
81666;Laerm;71083;51.796;10.952;2023-11-18T05:19:01;59.75;32.02;71.40;;
81666;Laerm;71083;51.796;10.952;2023-11-18T05:21:27;57.19;32.60;69.74;;
81666;Laerm;71083;51.796;10.952;2023-11-18T05:23:52;59.20;31.39;73.12;;
81666;Laerm;71083;51.796;10.952;2023-11-18T05:26:18;57.34;33.65;73.53;;
81666;Laerm;71083;51.796;10.952;2023-11-18T05:28:43;61.09;32.10;72.70;;
81666;Laerm;71083;51.796;10.952;2023-11-18T05:31:10;59.98;31.11;70.81;;
81666;Laerm;71083;51.796;10.952;2023-11-18T05:33:35;59.29;35.32;70.85;;
81666;Laerm;71083;51.796;10.952;2023-11-18T05:36:01;62.25;36.58;75.41;;
81666;Laerm;71083;51.796;10.952;2023-11-18T05:38:30;56.60;30.46;72.18;;
81666;Laerm;71083;51.796;10.952;2023-11-18T05:40:59;58.10;29.89;71.10;;
81666;Laerm;71083;51.796;10.952;2023-11-18T05:43:27;61.16;32.13;74.50;;
81666;Laerm;71083;51.796;10.952;2023-11-18T05:46:02;59.82;29.52;74.11;;
81666;Laerm;71083;51.796;10.952;2023-11-18T05:48:42;60.26;28.57;73.83;;
81666;Laerm;71083;51.796;10.952;2023-11-18T05:51:08;62.39;31.49;74.38;;
81666;Laerm;71083;51.796;10.952;2023-11-18T05:53:33;58.58;33.59;72.54;;
81666;Laerm;71083;51.796;10.952;2023-11-18T05:55:58;62.18;32.77;73.14;;
81666;Laerm;71083;51.796;10.952;2023-11-18T05:58:24;60.60;34.96;73.23;;
81666;Laerm;71083;51.796;10.952;2023-11-18T06:00:49;63.51;34.44;76.63;;
81666;Laerm;71083;51.796;10.952;2023-11-18T06:03:15;59.55;33.82;71.90;;
81666;Laerm;71083;51.796;10.952;2023-11-18T06:05:40;59.83;31.33;71.49;;
81666;Laerm;71083;51.796;10.952;2023-11-18T06:08:05;53.97;30.73;69.78;;
81666;Laerm;71083;51.796;10.952;2023-11-18T06:10:33;61.62;34.93;73.06;;
81666;Laerm;71083;51.796;10.952;2023-11-18T06:12:59;56.79;34.76;70.58;;
81666;Laerm;71083;51.796;10.952;2023-11-18T06:15:24;59.49;32.36;71.16;;
81666;Laerm;71083;51.796;10.952;2023-11-18T06:17:50;61.46;33.75;74.61;;
81666;Laerm;71083;51.796;10.952;2023-11-18T06:20:15;63.07;34.23;74.96;;
81666;Laerm;71083;51.796;10.952;2023-11-18T06:22:42;63.87;32.86;74.77;;
81666;Laerm;71083;51.796;10.952;2023-11-18T06:25:07;62.20;34.91;73.79;;
81666;Laerm;71083;51.796;10.952;2023-11-18T06:27:33;64.83;45.21;77.04;;
81666;Laerm;71083;51.796;10.952;2023-11-18T06:29:59;61.90;38.20;73.79;;
81666;Laerm;71083;51.796;10.952;2023-11-18T06:32:24;61.69;36.44;74.74;;
81666;Laerm;71083;51.796;10.952;2023-11-18T06:34:51;66.16;36.31;77.24;;
81666;Laerm;71083;51.796;10.952;2023-11-18T06:37:16;62.81;41.32;77.49;;
81666;Laerm;71083;51.796;10.952;2023-11-18T06:39:42;62.69;39.48;74.33;;
81666;Laerm;71083;51.796;10.952;2023-11-18T06:42:09;66.44;40.80;76.01;;
81666;Laerm;71083;51.796;10.952;2023-11-18T06:44:36;63.66;36.68;74.99;;
81666;Laerm;71083;51.796;10.952;2023-11-18T06:47:02;64.45;40.62;74.16;;
81666;Laerm;71083;51.796;10.952;2023-11-18T06:49:27;64.63;40.27;75.32;;
81666;Laerm;71083;51.796;10.952;2023-11-18T06:51:54;64.22;38.79;74.09;;
81666;Laerm;71083;51.796;10.952;2023-11-18T06:54:20;63.24;42.06;72.38;;
81666;Laerm;71083;51.796;10.952;2023-11-18T06:56:45;63.09;38.21;75.98;;
81666;Laerm;71083;51.796;10.952;2023-11-18T06:59:11;63.23;37.79;75.05;;
81666;Laerm;71083;51.796;10.952;2023-11-18T07:01:37;67.46;45.80;79.99;;
81666;Laerm;71083;51.796;10.952;2023-11-18T07:04:05;59.10;37.16;69.28;;
81666;Laerm;71083;51.796;10.952;2023-11-18T07:06:33;63.21;35.24;75.72;;
81666;Laerm;71083;51.796;10.952;2023-11-18T07:09:03;65.75;37.69;76.49;;
81666;Laerm;71083;51.796;10.952;2023-11-18T07:11:28;61.84;41.37;74.15;;
81666;Laerm;71083;51.796;10.952;2023-11-18T07:13:54;67.13;40.02;77.30;;
81666;Laerm;71083;51.796;10.952;2023-11-18T07:16:23;63.19;39.02;76.79;;
81666;Laerm;71083;51.796;10.952;2023-11-18T07:18:48;65.44;41.29;76.06;;
81666;Laerm;71083;51.796;10.952;2023-11-18T07:21:13;66.03;39.95;75.47;;
81666;Laerm;71083;51.796;10.952;2023-11-18T07:23:39;64.16;40.71;74.23;;
81666;Laerm;71083;51.796;10.952;2023-11-18T07:26:04;65.07;43.11;74.76;;
81666;Laerm;71083;51.796;10.952;2023-11-18T07:28:30;63.36;42.70;78.53;;
81666;Laerm;71083;51.796;10.952;2023-11-18T07:30:56;64.45;47.34;76.08;;
81666;Laerm;71083;51.796;10.952;2023-11-18T07:33:23;63.54;38.13;74.29;;
81666;Laerm;71083;51.796;10.952;2023-11-18T07:35:49;64.61;43.95;74.33;;
81666;Laerm;71083;51.796;10.952;2023-11-18T07:38:15;67.52;38.96;83.05;;
81666;Laerm;71083;51.796;10.952;2023-11-18T07:40:40;66.27;39.86;75.98;;
81666;Laerm;71083;51.796;10.952;2023-11-18T07:43:13;62.97;37.15;72.75;;
81666;Laerm;71083;51.796;10.952;2023-11-18T07:45:39;64.21;34.24;76.73;;
81666;Laerm;71083;51.796;10.952;2023-11-18T07:48:08;64.50;40.51;74.40;;
81666;Laerm;71083;51.796;10.952;2023-11-18T07:50:34;63.52;39.47;73.55;;
81666;Laerm;71083;51.796;10.952;2023-11-18T07:53:00;65.71;45.79;74.60;;
81666;Laerm;71083;51.796;10.952;2023-11-18T07:55:25;66.36;45.01;78.98;;
81666;Laerm;71083;51.796;10.952;2023-11-18T07:57:51;67.68;39.62;74.12;;
81666;Laerm;71083;51.796;10.952;2023-11-18T08:00:17;66.19;44.13;75.57;;
81666;Laerm;71083;51.796;10.952;2023-11-18T08:02:42;66.24;43.66;74.97;;
81666;Laerm;71083;51.796;10.952;2023-11-18T08:05:09;66.40;39.57;76.72;;
81666;Laerm;71083;51.796;10.952;2023-11-18T08:07:38;65.91;38.15;82.58;;
81666;Laerm;71083;51.796;10.952;2023-11-18T08:10:05;66.79;38.17;76.35;;
81666;Laerm;71083;51.796;10.952;2023-11-18T08:12:31;63.82;43.31;73.91;;
81666;Laerm;71083;51.796;10.952;2023-11-18T08:14:56;64.43;44.20;74.21;;
81666;Laerm;71083;51.796;10.952;2023-11-18T08:17:23;65.64;48.27;74.21;;
81666;Laerm;71083;51.796;10.952;2023-11-18T08:19:48;66.91;43.12;75.29;;
81666;Laerm;71083;51.796;10.952;2023-11-18T08:22:15;66.37;41.01;76.22;;
81666;Laerm;71083;51.796;10.952;2023-11-18T08:24:43;66.65;40.78;79.67;;
81666;Laerm;71083;51.796;10.952;2023-11-18T08:27:09;67.14;44.62;76.90;;
81666;Laerm;71083;51.796;10.952;2023-11-18T08:29:34;64.14;39.55;74.98;;
81666;Laerm;71083;51.796;10.952;2023-11-18T08:32:00;66.40;38.97;75.62;;
81666;Laerm;71083;51.796;10.952;2023-11-18T08:34:25;67.33;50.71;76.59;;
81666;Laerm;71083;51.796;10.952;2023-11-18T08:36:51;67.59;48.83;77.28;;
81666;Laerm;71083;51.796;10.952;2023-11-18T08:39:16;66.07;44.73;75.05;;
81666;Laerm;71083;51.796;10.952;2023-11-18T08:41:44;65.53;41.47;73.36;;
81666;Laerm;71083;51.796;10.952;2023-11-18T08:44:11;66.99;45.52;75.87;;
81666;Laerm;71083;51.796;10.952;2023-11-18T08:46:38;67.80;48.30;77.35;;
81666;Laerm;71083;51.796;10.952;2023-11-18T08:49:04;67.66;51.26;77.58;;
81666;Laerm;71083;51.796;10.952;2023-11-18T08:51:36;66.66;50.75;75.90;;
81666;Laerm;71083;51.796;10.952;2023-11-18T08:54:02;66.42;37.80;75.04;;
81666;Laerm;71083;51.796;10.952;2023-11-18T08:56:42;68.01;48.34;75.18;;
81666;Laerm;71083;51.796;10.952;2023-11-18T08:59:09;66.76;46.23;74.26;;
81666;Laerm;71083;51.796;10.952;2023-11-18T09:01:34;65.49;48.23;74.45;;
81666;Laerm;71083;51.796;10.952;2023-11-18T09:03:59;67.78;51.29;79.82;;
81666;Laerm;71083;51.796;10.952;2023-11-18T09:06:26;67.57;47.37;78.66;;
81666;Laerm;71083;51.796;10.952;2023-11-18T09:08:54;68.04;45.48;74.53;;
81666;Laerm;71083;51.796;10.952;2023-11-18T09:11:20;67.83;53.41;74.58;;
81666;Laerm;71083;51.796;10.952;2023-11-18T09:13:47;68.14;52.83;74.13;;
81666;Laerm;71083;51.796;10.952;2023-11-18T09:16:14;63.75;43.71;80.85;;
81666;Laerm;71083;51.796;10.952;2023-11-18T09:18:41;66.86;50.97;73.71;;
81666;Laerm;71083;51.796;10.952;2023-11-18T09:21:08;66.49;42.67;74.44;;
81666;Laerm;71083;51.796;10.952;2023-11-18T09:23:39;68.47;45.93;75.07;;
81666;Laerm;71083;51.796;10.952;2023-11-18T09:26:05;66.42;45.90;77.01;;
81666;Laerm;71083;51.796;10.952;2023-11-18T09:28:33;68.34;49.04;76.92;;
81666;Laerm;71083;51.796;10.952;2023-11-18T09:31:00;67.11;44.25;74.31;;
81666;Laerm;71083;51.796;10.952;2023-11-18T09:33:28;68.24;42.34;75.80;;
81666;Laerm;71083;51.796;10.952;2023-11-18T09:35:56;68.74;51.27;76.50;;
81666;Laerm;71083;51.796;10.952;2023-11-18T09:38:31;67.54;46.63;74.94;;
81666;Laerm;71083;51.796;10.952;2023-11-18T09:40:58;66.82;43.68;75.37;;
81666;Laerm;71083;51.796;10.952;2023-11-18T09:43:30;67.82;45.88;75.77;;
81666;Laerm;71083;51.796;10.952;2023-11-18T09:46:07;67.35;46.48;74.54;;
81666;Laerm;71083;51.796;10.952;2023-11-18T09:48:44;67.39;47.16;75.01;;
81666;Laerm;71083;51.796;10.952;2023-11-18T09:51:15;68.15;50.75;75.28;;
81666;Laerm;71083;51.796;10.952;2023-11-18T09:53:41;68.69;41.11;74.87;;
81666;Laerm;71083;51.796;10.952;2023-11-18T09:56:13;67.73;49.31;76.75;;
81666;Laerm;71083;51.796;10.952;2023-11-18T09:58:49;69.24;49.84;77.01;;
81666;Laerm;71083;51.796;10.952;2023-11-18T10:01:18;67.49;44.79;74.18;;
81666;Laerm;71083;51.796;10.952;2023-11-18T10:03:44;68.94;53.21;76.65;;
81666;Laerm;71083;51.796;10.952;2023-11-18T10:06:12;67.28;46.99;76.03;;
81666;Laerm;71083;51.796;10.952;2023-11-18T10:08:39;67.42;51.40;74.64;;
81666;Laerm;71083;51.796;10.952;2023-11-18T10:11:05;68.87;42.18;78.14;;
81666;Laerm;71083;51.796;10.952;2023-11-18T10:13:34;68.80;44.29;74.51;;
81666;Laerm;71083;51.796;10.952;2023-11-18T10:16:02;66.80;51.69;74.68;;
81666;Laerm;71083;51.796;10.952;2023-11-18T10:18:30;68.53;51.90;76.10;;
81666;Laerm;71083;51.796;10.952;2023-11-18T10:21:00;68.38;50.72;74.33;;
81666;Laerm;71083;51.796;10.952;2023-11-18T10:23:26;68.25;49.86;75.52;;
81666;Laerm;71083;51.796;10.952;2023-11-18T10:25:55;67.17;46.02;75.96;;
81666;Laerm;71083;51.796;10.952;2023-11-18T10:28:28;69.34;50.35;81.87;;
81666;Laerm;71083;51.796;10.952;2023-11-18T10:30:54;66.86;50.79;74.60;;
81666;Laerm;71083;51.796;10.952;2023-11-18T10:33:26;69.34;54.48;78.67;;
81666;Laerm;71083;51.796;10.952;2023-11-18T10:35:55;66.59;41.38;74.66;;
81666;Laerm;71083;51.796;10.952;2023-11-18T10:38:21;68.33;44.75;77.59;;
81666;Laerm;71083;51.796;10.952;2023-11-18T10:40:57;67.32;49.94;74.42;;
81666;Laerm;71083;51.796;10.952;2023-11-18T10:43:22;67.86;41.22;78.29;;
81666;Laerm;71083;51.796;10.952;2023-11-18T10:48:38;68.20;47.28;79.07;;
81666;Laerm;71083;51.796;10.952;2023-11-18T10:51:06;68.68;54.38;75.22;;
81666;Laerm;71083;51.796;10.952;2023-11-18T10:53:31;70.12;47.50;80.60;;
81666;Laerm;71083;51.796;10.952;2023-11-18T10:55:58;68.45;56.55;74.54;;
81666;Laerm;71083;51.796;10.952;2023-11-18T10:58:23;67.68;42.62;75.04;;
81666;Laerm;71083;51.796;10.952;2023-11-18T11:00:50;67.69;53.37;74.64;;
81666;Laerm;71083;51.796;10.952;2023-11-18T11:03:18;68.85;50.29;75.90;;
81666;Laerm;71083;51.796;10.952;2023-11-18T11:05:43;65.62;47.16;74.34;;
81666;Laerm;71083;51.796;10.952;2023-11-18T11:08:11;69.02;50.24;77.99;;
81666;Laerm;71083;51.796;10.952;2023-11-18T11:10:39;68.33;50.85;76.39;;
81666;Laerm;71083;51.796;10.952;2023-11-18T11:13:07;66.67;46.72;74.97;;
81666;Laerm;71083;51.796;10.952;2023-11-18T11:15:33;68.52;49.81;80.87;;
81666;Laerm;71083;51.796;10.952;2023-11-18T11:18:05;67.94;53.03;75.76;;
81666;Laerm;71083;51.796;10.952;2023-11-18T11:20:37;67.85;50.18;77.82;;
81666;Laerm;71083;51.796;10.952;2023-11-18T11:23:14;83.49;49.42;102.39;;
81666;Laerm;71083;51.796;10.952;2023-11-18T11:28:21;67.48;50.30;75.43;;
81666;Laerm;71083;51.796;10.952;2023-11-18T11:31:30;67.79;49.75;78.38;;
81666;Laerm;71083;51.796;10.952;2023-11-18T11:33:39;66.34;42.40;74.09;;
81666;Laerm;71083;51.796;10.952;2023-11-18T11:36:11;67.93;50.96;79.70;;
81666;Laerm;71083;51.796;10.952;2023-11-18T11:38:37;66.40;50.07;74.42;;
81666;Laerm;71083;51.796;10.952;2023-11-18T11:41:02;68.30;43.04;78.90;;
81666;Laerm;71083;51.796;10.952;2023-11-18T11:43:34;68.14;44.01;76.03;;
81666;Laerm;71083;51.796;10.952;2023-11-18T11:46:00;66.85;43.79;73.21;;
81666;Laerm;71083;51.796;10.952;2023-11-18T11:48:28;67.24;46.28;75.19;;
81666;Laerm;71083;51.796;10.952;2023-11-18T11:51:11;67.52;46.60;74.44;;
81666;Laerm;71083;51.796;10.952;2023-11-18T11:53:45;67.33;48.62;75.10;;
81666;Laerm;71083;51.796;10.952;2023-11-18T11:56:12;69.16;54.52;76.48;;
81666;Laerm;71083;51.796;10.952;2023-11-18T11:58:40;67.58;47.28;74.61;;
81666;Laerm;71083;51.796;10.952;2023-11-18T12:03:48;67.40;46.08;74.69;;
81666;Laerm;71083;51.796;10.952;2023-11-18T12:06:20;67.90;49.70;75.79;;
81666;Laerm;71083;51.796;10.952;2023-11-18T12:08:50;67.32;46.07;75.52;;
81666;Laerm;71083;51.796;10.952;2023-11-18T12:11:17;68.37;51.96;75.52;;
81666;Laerm;71083;51.796;10.952;2023-11-18T12:13:59;67.70;45.06;77.54;;
81666;Laerm;71083;51.796;10.952;2023-11-18T12:19:31;68.86;45.84;76.06;;
81666;Laerm;71083;51.796;10.952;2023-11-18T12:22:01;69.20;41.74;76.62;;
81666;Laerm;71083;51.796;10.952;2023-11-18T12:24:35;65.92;46.88;73.65;;
81666;Laerm;71083;51.796;10.952;2023-11-18T12:27:00;66.82;43.73;77.70;;
81666;Laerm;71083;51.796;10.952;2023-11-18T12:29:31;66.80;54.45;75.13;;
81666;Laerm;71083;51.796;10.952;2023-11-18T12:31:57;67.88;43.42;74.95;;
81666;Laerm;71083;51.796;10.952;2023-11-18T12:34:23;66.28;46.89;73.95;;
81666;Laerm;71083;51.796;10.952;2023-11-18T12:37:03;68.11;51.01;74.91;;
81666;Laerm;71083;51.796;10.952;2023-11-18T12:39:59;68.52;53.96;75.85;;
81666;Laerm;71083;51.796;10.952;2023-11-18T12:47:49;67.21;43.08;75.00;;
81666;Laerm;71083;51.796;10.952;2023-11-18T12:50:18;67.36;50.42;75.10;;
81666;Laerm;71083;51.796;10.952;2023-11-18T12:52:52;68.62;50.08;77.67;;
81666;Laerm;71083;51.796;10.952;2023-11-18T12:55:17;67.31;55.16;75.16;;
81666;Laerm;71083;51.796;10.952;2023-11-18T12:57:47;67.98;45.90;76.58;;
81666;Laerm;71083;51.796;10.952;2023-11-18T13:00:13;67.64;52.88;77.32;;
81666;Laerm;71083;51.796;10.952;2023-11-18T13:02:42;67.62;47.08;76.57;;
81666;Laerm;71083;51.796;10.952;2023-11-18T13:05:07;69.08;49.40;76.12;;
81666;Laerm;71083;51.796;10.952;2023-11-18T13:07:34;68.24;50.18;75.24;;
81666;Laerm;71083;51.796;10.952;2023-11-18T13:10:01;65.35;43.13;74.23;;
81666;Laerm;71083;51.796;10.952;2023-11-18T13:12:29;69.48;44.60;76.72;;
81666;Laerm;71083;51.796;10.952;2023-11-18T13:14:55;68.61;49.49;78.51;;
81666;Laerm;71083;51.796;10.952;2023-11-18T13:17:21;68.02;51.30;74.84;;
81666;Laerm;71083;51.796;10.952;2023-11-18T13:19:47;67.09;42.42;74.27;;
81666;Laerm;71083;51.796;10.952;2023-11-18T13:22:13;67.12;50.53;79.40;;
81666;Laerm;71083;51.796;10.952;2023-11-18T13:24:39;69.95;52.11;83.56;;
81666;Laerm;71083;51.796;10.952;2023-11-18T13:27:05;69.41;51.27;85.16;;
81666;Laerm;71083;51.796;10.952;2023-11-18T13:29:32;67.28;43.38;75.40;;
81666;Laerm;71083;51.796;10.952;2023-11-18T13:31:58;67.94;54.27;75.02;;
81666;Laerm;71083;51.796;10.952;2023-11-18T13:34:25;67.90;50.27;73.91;;
81666;Laerm;71083;51.796;10.952;2023-11-18T13:36:51;68.47;47.88;74.92;;
81666;Laerm;71083;51.796;10.952;2023-11-18T13:39:19;68.78;51.59;75.73;;
81666;Laerm;71083;51.796;10.952;2023-11-18T13:41:47;67.14;39.58;74.47;;
81666;Laerm;71083;51.796;10.952;2023-11-18T13:44:30;68.81;56.60;76.42;;
81666;Laerm;71083;51.796;10.952;2023-11-18T13:46:59;67.58;52.71;79.96;;
81666;Laerm;71083;51.796;10.952;2023-11-18T13:49:27;68.05;41.71;79.19;;